Time;durP1;ratioP1;P1;durP2;ratioP2;P2;SDS_P1;SDS_P2;PMS_P1;PMS_P2;Temp;Humidity;BMP_temperature;BMP_pressure;BME280_temperature;BME280_humidity;BME280_pressure;Samples;Min_cycle;Max_cycle;Signal;HPM_P1;HPM_P2
2022/05/28 00:00:04;;;;;;;3.85;2.20;;;;;;;26.88;46.51;100508.88;5078223;28;71396;-41
2022/05/28 00:02:36;;;;;;;5.55;2.53;;;;;;;26.89;46.07;100522.16;5080288;28;66223;-40
2022/05/28 00:05:08;;;;;;;6.25;2.58;;;;;;;26.51;46.00;100454.53;5066316;28;69977;-40
2022/05/28 00:07:40;;;;;;;6.07;2.80;;;;;;;26.96;46.35;100524.88;5078001;28;66930;-39
2022/05/28 00:10:16;;;;;;;2.78;2.58;;;;;;;27.09;47.17;100521.38;5072061;28;69947;-40
2022/05/28 00:12:48;;;;;;;3.40;2.92;;;;;;;27.21;48.24;100518.97;5054614;28;66085;-40
2022/05/28 00:15:19;;;;;;;9.70;4.47;;;;;;;27.41;56.85;100525.19;5069116;28;69896;-40
2022/05/28 00:17:50;;;;;;;7.55;6.35;;;;;;;27.65;61.06;100531.03;5078561;28;67251;-40
2022/05/28 00:20:22;;;;;;;11.20;6.50;;;;;;;27.78;61.59;100529.16;5047227;28;69352;-38
2022/05/28 00:22:53;;;;;;;10.20;6.60;;;;;;;27.94;64.81;100525.22;5057285;28;67455;-39
2022/05/28 00:25:25;;;;;;;7.68;6.95;;;;;;;28.03;65.76;100533.97;5061306;28;69551;-39
2022/05/28 00:27:56;;;;;;;10.65;6.60;;;;;;;28.16;65.55;100535.78;5047404;28;66608;-39
2022/05/28 00:30:27;;;;;;;7.32;6.50;;;;;;;28.27;67.09;100529.75;5072025;28;71015;-38
2022/05/28 00:32:58;;;;;;;11.05;7.35;;;;;;;28.27;62.22;100524.34;5078552;28;65299;-38
2022/05/28 00:35:29;;;;;;;11.77;8.02;;;;;;;28.49;61.75;100544.66;5067916;28;69698;-38
2022/05/28 00:38:02;;;;;;;23.35;8.25;;;;;;;28.49;62.05;100539.25;5066889;28;66709;-37
2022/05/28 00:40:36;;;;;;;11.27;7.47;;;;;;;28.66;62.45;100554.97;5075750;28;70041;-38
2022/05/28 00:43:07;;;;;;;15.70;8.27;;;;;;;28.51;61.88;100531.78;5051684;28;65943;-37
2022/05/28 00:45:38;;;;;;;11.15;7.97;;;;;;;28.84;62.18;100574.03;5062712;28;70649;-38
2022/05/28 00:48:11;;;;;;;9.52;8.00;;;;;;;28.86;63.42;100565.69;5058265;28;65540;-39
2022/05/28 00:50:43;;;;;;;10.05;8.25;;;;;;;29.03;63.77;100587.63;5062774;28;70321;-39
2022/05/28 00:53:14;;;;;;;10.10;9.30;;;;;;;29.08;63.39;100596.78;5064321;28;65443;-38
2022/05/28 00:55:46;;;;;;;9.90;9.15;;;;;;;29.16;63.63;100595.72;5066744;28;69354;-39
2022/05/28 00:58:17;;;;;;;11.00;10.00;;;;;;;29.18;64.04;100599.88;5077430;28;64786;-39
2022/05/28 01:00:48;;;;;;;12.10;11.05;;;;;;;29.26;64.28;100601.50;5059146;28;71113;-38
2022/05/28 01:03:54;;;;;;;17.83;11.18;;;;;;;29.15;67.87;100607.56;5048814;28;66295;-38
2022/05/28 01:06:39;;;;;;;13.93;11.93;;;;;;;29.01;65.94;100549.25;4996986;28;70213;-39
2022/05/28 01:09:30;;;;;;;13.52;12.15;;;;;;;29.29;67.95;100608.34;5065699;28;66691;-39
2022/05/28 01:12:35;;;;;;;12.75;11.50;;;;;;;29.50;66.54;100621.50;5064724;28;69239;-37
2022/05/28 01:15:20;;;;;;;16.42;13.10;;;;;;;29.38;67.82;100590.81;5045018;28;65409;-38
2022/05/28 01:18:23;;;;;;;13.80;12.07;;;;;;;29.58;67.39;100601.50;5078519;28;70650;-38
2022/05/28 01:21:00;;;;;;;13.38;11.98;;;;;;;29.49;65.85;100575.78;5005686;28;65216;-38
2022/05/28 01:23:53;;;;;;;26.27;15.20;;;;;;;29.50;66.75;100578.25;5072660;28;69027;-38
2022/05/28 01:26:23;;;;;;;;;;;;;;;29.45;72.34;100620.50;5053714;28;65840;-39
2022/05/28 01:29:04;;;;;;;18.35;16.23;;;;;;;29.19;72.20;100549.38;5056673;28;70075;-37
2022/05/28 01:31:37;;;;;;;26.60;19.60;;;;;;;29.56;72.85;100615.25;5067729;28;66580;-37
2022/05/28 01:34:09;;;;;;;24.65;19.45;;;;;;;29.52;72.38;100613.19;5057196;28;70371;-37
2022/05/28 01:36:41;;;;;;;21.38;18.45;;;;;;;29.51;73.26;100616.94;5059325;28;65946;-37
2022/05/28 01:39:13;;;;;;;20.92;16.85;;;;;;;29.51;73.05;100611.53;5064787;28;70042;-38
2022/05/28 01:41:46;;;;;;;21.67;15.63;;;;;;;29.50;73.64;100609.88;5044426;28;66742;-38
2022/05/28 01:44:18;;;;;;;18.17;15.60;;;;;;;29.49;73.81;100619.03;5054604;28;69199;-37
2022/05/28 01:46:51;;;;;;;19.20;15.35;;;;;;;29.49;73.86;100613.63;5053515;28;66426;-38
2022/05/28 01:49:24;;;;;;;18.85;13.05;;;;;;;29.22;73.95;100567.00;5030501;28;69815;-39
2022/05/28 01:51:59;;;;;;;15.63;14.10;;;;;;;28.76;74.13;100487.88;5062252;28;66083;-39
2022/05/28 01:54:37;;;;;;;22.00;13.32;;;;;;;29.58;74.35;100623.94;5072079;28;70124;-39
2022/05/28 01:57:08;;;;;;;17.60;13.70;;;;;;;29.58;73.74;100623.13;5074865;28;65182;-39
2022/05/28 01:59:41;;;;;;;13.52;12.35;;;;;;;29.43;74.08;100592.88;5052267;28;70260;-38
2022/05/28 02:02:14;;;;;;;15.80;12.15;;;;;;;29.57;73.64;100613.38;5072913;28;66551;-38
2022/05/28 02:04:48;;;;;;;13.43;11.98;;;;;;;29.66;73.41;100614.78;5072806;28;69520;-43
2022/05/28 02:07:20;;;;;;;16.00;12.13;;;;;;;29.57;73.81;100606.09;5035378;28;66170;-39
2022/05/28 02:10:03;;;;;;;12.93;11.68;;;;;;;29.61;73.72;100606.47;5074324;28;68898;-38
2022/05/28 02:12:43;;;;;;;18.17;11.85;;;;;;;29.67;73.68;100616.47;5068281;28;65988;-36
2022/05/28 02:15:38;;;;;;;15.00;11.25;;;;;;;29.23;73.96;100558.72;5070437;28;70092;-39
2022/05/28 02:18:48;;;;;;;11.98;10.48;;;;;;;29.66;73.60;100616.66;5067463;28;66750;-37
2022/05/28 02:21:38;;;;;;;15.82;11.43;;;;;;;29.76;73.34;100608.91;5066186;28;70635;-39
2022/05/28 02:24:19;;;;;;;14.75;11.25;;;;;;;29.40;73.45;100540.94;5069985;28;65788;-38
2022/05/28 02:26:55;;;;;;;12.10;10.63;;;;;;;29.50;73.67;100545.00;5063679;28;69880;-38
2022/05/28 02:29:29;;;;;;;9.98;9.10;;;;;;;29.55;73.03;100537.06;5073515;28;66540;-39
2022/05/28 02:31:59;;;;;;;11.88;8.77;;;;;;;29.92;72.44;100591.28;5074530;28;69863;-37
2022/05/28 02:34:31;;;;;;;16.48;8.07;;;;;;;29.97;71.64;100596.88;5077478;28;66261;-40
2022/05/28 02:37:01;;;;;;;9.13;8.20;;;;;;;29.99;72.90;100603.72;5067907;28;69590;-38
2022/05/28 02:39:32;;;;;;;10.65;7.30;;;;;;;29.97;72.16;100594.16;5076680;28;65235;-37
2022/05/28 02:42:03;;;;;;;7.82;6.47;;;;;;;30.02;71.72;100592.44;5079342;28;70376;-38
2022/05/28 02:44:35;;;;;;;14.65;6.13;;;;;;;29.96;72.14;100590.63;5075193;28;65445;-40
2022/05/28 02:47:07;;;;;;;5.90;5.10;;;;;;;30.05;71.50;100602.81;5063714;28;69806;-40
2022/05/28 02:49:38;;;;;;;5.20;4.80;;;;;;;30.09;71.44;100592.41;5076743;28;65045;-38
2022/05/28 02:52:09;;;;;;;8.17;5.33;;;;;;;30.11;71.41;100598.41;5052680;28;69967;-39
2022/05/28 02:54:40;;;;;;;5.18;4.68;;;;;;;30.11;71.25;100590.28;5054800;28;64612;-40
2022/05/28 02:57:11;;;;;;;4.78;4.28;;;;;;;30.10;71.48;100588.66;5075990;28;69291;-39
2022/05/28 02:59:43;;;;;;;5.83;3.97;;;;;;;30.11;71.17;100571.34;5071722;28;65872;-38
2022/05/28 03:02:14;;;;;;;4.63;4.22;;;;;;;30.21;71.06;100576.28;5077313;28;70358;-38
2022/05/28 03:04:45;;;;;;;4.75;3.80;;;;;;;30.27;70.46;100576.22;5050356;28;66348;-38
2022/05/28 03:07:15;;;;;;;3.97;3.65;;;;;;;30.27;70.72;100562.69;5065487;28;69940;-38
2022/05/28 03:09:46;;;;;;;3.85;3.45;;;;;;;30.19;70.45;100549.44;5071916;28;65402;-42
2022/05/28 03:12:17;;;;;;;4.70;3.83;;;;;;;30.27;70.66;100562.69;5078930;28;69565;-39
2022/05/28 03:14:48;;;;;;;7.32;3.45;;;;;;;30.33;69.99;100557.44;5031064;28;66483;-39
2022/05/28 03:17:19;;;;;;;7.95;4.20;;;;;;;30.34;69.92;100557.25;5060825;28;69222;-37
2022/05/28 03:19:51;;;;;;;5.32;3.35;;;;;;;30.32;70.25;100561.22;5060736;28;65285;-38
2022/05/28 03:22:22;;;;;;;4.70;3.55;;;;;;;30.35;69.96;100558.06;5062569;28;69832;-39
2022/05/28 03:24:53;;;;;;;12.17;3.90;;;;;;;30.37;69.33;100566.75;5070359;28;66131;-38
2022/05/28 03:27:24;;;;;;;5.05;3.92;;;;;;;30.41;69.06;100557.16;5039559;28;71014;-39
2022/05/28 03:29:55;;;;;;;9.80;3.45;;;;;;;30.41;68.49;100562.56;5062646;28;65408;-38
2022/05/28 03:32:26;;;;;;;5.53;3.42;;;;;;;30.43;69.14;100561.28;5060921;28;70090;-39
2022/05/28 03:34:58;;;;;;;7.03;4.18;;;;;;;30.45;69.00;100561.06;5073590;28;65214;-39
2022/05/28 03:37:30;;;;;;;4.35;3.90;;;;;;;30.51;68.92;100557.47;5077184;27;70148;-39
2022/05/28 03:40:02;;;;;;;8.05;3.60;;;;;;;30.38;68.69;100538.66;5068385;28;66055;-38
2022/05/28 03:42:33;;;;;;;3.95;3.50;;;;;;;30.50;69.59;100556.63;5058197;28;69671;-39
2022/05/28 03:45:04;;;;;;;9.52;4.80;;;;;;;30.50;69.50;100555.78;5059978;28;67343;-38
2022/05/28 03:47:36;;;;;;;15.48;6.55;;;;;;;30.52;69.68;100556.41;5056291;28;70181;-38
2022/05/28 03:50:07;;;;;;;16.33;5.57;;;;;;;30.53;69.70;100549.94;5042749;28;66797;-39
2022/05/28 03:52:39;;;;;;;15.07;4.38;;;;;;;30.55;69.66;100555.94;5044716;28;70359;-38
2022/05/28 03:55:10;;;;;;;11.13;3.80;;;;;;;30.61;69.31;100541.50;5038897;28;68253;-39
2022/05/28 03:57:41;;;;;;;7.13;3.63;;;;;;;30.60;69.03;100539.88;5036960;28;69665;-38
2022/05/28 04:00:12;;;;;;;3.92;3.10;;;;;;;30.56;68.86;100530.53;5077820;28;66606;-38
2022/05/28 04:02:43;;;;;;;3.28;2.90;;;;;;;30.63;68.94;100538.59;5060333;28;68772;-39
2022/05/28 04:05:15;;;;;;;3.20;2.88;;;;;;;30.68;68.92;100542.25;5053347;28;66433;-40
2022/05/28 04:07:46;;;;;;;6.78;3.08;;;;;;;30.67;68.42;100550.59;5024902;28;70216;-39
2022/05/28 04:10:19;;;;;;;6.15;2.90;;;;;;;30.69;68.88;100546.63;5051678;28;65976;-38
2022/05/28 04:12:50;;;;;;;3.58;3.00;;;;;;;30.71;68.42;100549.94;5058101;28;69147;-39
2022/05/28 04:15:24;;;;;;;4.80;2.33;;;;;;;30.66;68.48;100544.38;5054981;28;66119;-39
2022/05/28 04:17:55;;;;;;;4.88;2.22;;;;;;;30.72;67.90;100535.31;5049693;28;70113;-39
2022/05/28 04:20:27;;;;;;;2.97;2.20;;;;;;;30.79;67.98;100550.69;5072438;28;66223;-39
2022/05/28 04:22:58;;;;;;;10.93;2.40;;;;;;;30.83;67.98;100554.59;5061761;28;69464;-38
2022/05/28 04:25:29;;;;;;;2.72;2.00;;;;;;;30.83;68.15;100551.91;5081037;28;67372;-39
2022/05/28 04:27:59;;;;;;;3.30;1.88;;;;;;;30.81;68.19;100545.88;5064788;28;69807;-37
2022/05/28 04:30:30;;;;;;;8.10;2.35;;;;;;;30.83;67.53;100551.91;5052909;28;65478;-38
2022/05/28 04:33:02;;;;;;;5.18;2.28;;;;;;;30.89;68.26;100564.53;5067898;28;71204;-39
2022/05/28 04:35:33;;;;;;;5.73;2.10;;;;;;;30.90;67.79;100555.38;5082331;28;65690;-38
2022/05/28 04:38:04;;;;;;;5.80;1.83;;;;;;;30.95;67.91;100552.78;5046670;28;69953;-40
2022/05/28 04:40:35;;;;;;;8.50;2.37;;;;;;;30.91;67.28;100552.41;5074640;28;65384;-38
2022/05/28 04:43:06;;;;;;;2.40;1.85;;;;;;;30.83;64.68;100549.19;5066106;28;70087;-39
2022/05/28 04:45:37;;;;;;;3.22;1.98;;;;;;;30.71;63.37;100549.94;5071240;28;66829;-37
2022/05/28 04:48:10;;;;;;;3.88;1.60;;;;;;;30.64;62.35;100557.28;5070818;28;70588;-38
2022/05/28 04:50:41;;;;;;;3.05;1.63;;;;;;;30.50;60.31;100539.56;5070441;28;66423;-39
2022/05/28 04:53:11;;;;;;;2.13;1.70;;;;;;;30.43;59.49;100549.66;5071964;28;70981;-38
2022/05/28 04:55:45;;;;;;;3.28;1.50;;;;;;;30.37;58.33;100545.09;5074857;28;66412;-39
2022/05/28 04:58:16;;;;;;;1.92;1.50;;;;;;;30.32;57.54;100531.44;5055615;28;69770;-39
2022/05/28 05:00:47;;;;;;;;;;;;;;;29.89;57.27;100543.06;5054560;28;65669;-38
2022/05/28 05:03:19;;;;;;;5.82;1.65;;;;;;;30.14;61.09;100530.34;5071187;28;70211;-38
2022/05/28 05:05:50;;;;;;;5.93;1.97;;;;;;;30.09;61.09;100521.22;5075331;28;65935;-38
2022/05/28 05:08:20;;;;;;;2.15;1.63;;;;;;;30.14;58.90;100540.34;5076642;28;70274;-38
2022/05/28 05:10:51;;;;;;;3.35;1.58;;;;;;;30.08;58.08;100531.22;5070704;27;65922;-38
2022/05/28 05:13:22;;;;;;;3.00;1.50;;;;;;;30.01;56.90;100530.47;5064283;28;71105;-38
2022/05/28 05:15:53;;;;;;;2.28;1.35;;;;;;;29.95;55.84;100520.53;5076746;28;66344;-38
2022/05/28 05:18:24;;;;;;;2.00;1.38;;;;;;;29.95;54.92;100520.53;5061992;28;70484;-38
2022/05/28 05:20:55;;;;;;;1.73;1.10;;;;;;;29.89;54.13;100530.38;5065385;28;66767;-39
2022/05/28 05:23:26;;;;;;;2.47;1.55;;;;;;;29.92;53.02;100523.69;5069987;28;69503;-38
2022/05/28 05:25:57;;;;;;;2.72;1.25;;;;;;;29.84;52.96;100514.81;5079569;28;67238;-38
2022/05/28 05:28:28;;;;;;;3.35;1.17;;;;;;;29.88;54.04;100517.09;5075705;28;69820;-39
2022/05/28 05:30:59;;;;;;;2.40;1.30;;;;;;;29.91;52.86;100516.63;5046336;28;66551;-38
2022/05/28 05:33:30;;;;;;;2.83;1.13;;;;;;;29.92;52.72;100510.16;5069575;28;69078;-38
2022/05/28 05:36:01;;;;;;;2.22;1.60;;;;;;;29.93;52.23;100511.84;5070059;28;67278;-38
2022/05/28 05:38:32;;;;;;;2.90;1.15;;;;;;;29.92;51.67;100505.63;5058078;28;70264;-37
2022/05/28 05:41:03;;;;;;;1.75;1.08;;;;;;;29.80;51.00;100488.44;5066387;28;66735;-40
2022/05/28 05:43:34;;;;;;;2.27;1.20;;;;;;;29.94;50.60;100505.38;5065914;28;70637;-38
2022/05/28 05:46:05;;;;;;;1.47;0.90;;;;;;;29.93;50.30;100495.63;5064064;28;65574;-39
2022/05/28 05:48:36;;;;;;;2.13;1.00;;;;;;;29.60;50.12;100454.28;5070259;28;70235;-40
2022/05/28 05:51:10;;;;;;;4.28;1.40;;;;;;;29.88;48.85;100481.94;5065746;28;65347;-40
2022/05/28 05:53:42;;;;;;;4.75;0.98;;;;;;;29.83;48.82;100475.28;5066982;28;70093;-39
2022/05/28 05:56:13;;;;;;;1.20;0.85;;;;;;;29.83;48.95;100475.28;5079455;28;65986;-44
2022/05/28 05:58:44;;;;;;;1.88;1.15;;;;;;;29.88;48.98;100476.53;5074256;28;70070;-38
2022/05/28 06:01:21;;;;;;;3.45;1.13;;;;;;;29.93;48.89;100471.28;5056357;28;65968;-39
2022/05/28 06:03:52;;;;;;;1.60;1.15;;;;;;;29.92;48.62;100466.91;5070169;28;70449;-38
2022/05/28 06:06:24;;;;;;;1.48;1.00;;;;;;;29.95;48.13;100466.44;5079265;28;66631;-39
2022/05/28 06:08:55;;;;;;;3.90;1.23;;;;;;;29.90;47.95;100453.63;5079537;28;70440;-38
2022/05/28 06:11:26;;;;;;;1.80;1.30;;;;;;;29.92;48.41;100451.53;5065775;28;65858;-40
2022/05/28 06:13:57;;;;;;;1.88;1.25;;;;;;;29.89;47.63;100446.53;5077652;28;69959;-38
2022/05/28 06:16:28;;;;;;;1.60;1.20;;;;;;;29.96;48.21;100435.66;5071266;28;65716;-39
2022/05/28 06:18:59;;;;;;;3.45;1.13;;;;;;;29.98;47.81;100433.56;5063867;28;71364;-39
2022/05/28 06:21:30;;;;;;;1.77;1.17;;;;;;;29.97;47.72;100421.09;5045355;28;66504;-39
2022/05/28 06:24:01;;;;;;;1.70;1.17;;;;;;;30.00;47.36;100409.81;5076704;28;70250;-37
2022/05/28 06:26:32;;;;;;;2.30;1.50;;;;;;;29.99;47.52;100408.16;5078951;28;65264;-39
2022/05/28 06:29:03;;;;;;;2.13;1.45;;;;;;;29.93;47.55;100382.03;5064899;28;69433;-38
2022/05/28 06:31:34;;;;;;;1.83;1.48;;;;;;;30.00;46.80;100397.13;5045946;28;66410;-40
2022/05/28 06:34:05;;;;;;;4.93;1.73;;;;;;;30.01;46.89;100379.03;5076587;28;69312;-40
2022/05/28 06:36:36;;;;;;;2.03;1.40;;;;;;;30.01;46.63;100379.03;5048816;28;67362;-38
2022/05/28 06:39:07;;;;;;;2.60;1.42;;;;;;;29.94;46.33;100351.22;5061801;28;70029;-39
2022/05/28 06:41:38;;;;;;;1.92;1.40;;;;;;;30.02;46.63;100361.75;5051128;28;67095;-39
2022/05/28 06:44:10;;;;;;;2.90;1.23;;;;;;;30.00;46.86;100359.25;5051351;28;69818;-40
2022/05/28 06:46:41;;;;;;;2.63;1.33;;;;;;;30.08;46.66;100352.72;5065644;28;65651;-40
2022/05/28 06:49:12;;;;;;;2.65;1.50;;;;;;;30.03;46.51;100336.34;5057412;28;69056;-39
2022/05/28 06:51:44;;;;;;;2.70;1.30;;;;;;;30.08;45.81;100330.25;5063071;28;64851;-38
2022/05/28 06:54:15;;;;;;;1.67;1.33;;;;;;;30.06;45.98;100330.47;5067236;28;69533;-40
2022/05/28 06:56:46;;;;;;;3.20;1.35;;;;;;;30.07;45.51;100326.72;5068397;28;65673;-40
2022/05/28 06:59:16;;;;;;;2.40;1.20;;;;;;;30.07;45.58;100313.22;5074962;28;70235;-40
2022/05/28 07:01:47;;;;;;;1.67;1.30;;;;;;;30.03;45.19;100303.88;5082970;28;66416;-38
2022/05/28 07:04:18;;;;;;;3.22;1.40;;;;;;;30.09;44.80;100310.25;5070112;27;71797;-40
2022/05/28 07:06:52;;;;;;;3.00;1.45;;;;;;;30.07;46.00;100291.56;5066881;28;65270;-41
2022/05/28 07:09:24;;;;;;;3.55;1.48;;;;;;;30.06;46.04;100295.31;5055969;28;69999;-38
2022/05/28 07:11:55;;;;;;;1.95;1.33;;;;;;;30.14;46.07;100302.28;5032729;28;64037;-37
2022/05/28 07:14:26;;;;;;;3.08;1.50;;;;;;;30.16;48.84;100294.78;5058133;28;69920;-39
2022/05/28 07:16:56;;;;;;;2.60;1.48;;;;;;;30.16;47.94;100294.78;5056197;28;66199;-39
2022/05/28 07:19:29;;;;;;;2.13;1.52;;;;;;;30.16;47.93;100290.19;5071115;28;69876;-38
2022/05/28 07:22:00;;;;;;;3.25;1.48;;;;;;;30.18;47.32;100288.09;5075158;28;66173;-40
2022/05/28 07:24:30;;;;;;;1.58;1.20;;;;;;;30.09;46.99;100267.84;5073563;28;69804;-38
2022/05/28 07:27:01;;;;;;;2.80;1.52;;;;;;;30.14;46.56;100278.75;5069050;28;65706;-38
2022/05/28 07:29:32;;;;;;;3.00;1.52;;;;;;;30.18;46.71;100282.69;5069658;28;70392;-38
2022/05/28 07:32:03;;;;;;;1.73;1.50;;;;;;;30.15;46.24;100277.72;5080020;28;66794;-38
2022/05/28 07:34:34;;;;;;;2.00;1.37;;;;;;;30.16;46.42;100270.44;5075251;28;69628;-38
2022/05/28 07:37:05;;;;;;;1.90;1.45;;;;;;;30.20;46.13;100264.34;5069271;28;66178;-38
2022/05/28 07:39:35;;;;;;;1.58;1.27;;;;;;;30.14;45.70;100256.31;5074437;28;70209;-38
2022/05/28 07:42:06;;;;;;;8.23;1.73;;;;;;;30.24;45.98;100264.72;5067962;28;65842;-39
2022/05/28 07:44:37;;;;;;;2.77;1.63;;;;;;;30.20;46.72;100252.66;5075157;28;69826;-38
2022/05/28 07:47:08;;;;;;;3.22;2.00;;;;;;;30.27;48.80;100264.25;5072184;28;66453;-38
2022/05/28 07:49:40;;;;;;;2.47;2.17;;;;;;;30.28;48.57;100266.75;5076108;28;70007;-38
2022/05/28 07:52:11;;;;;;;2.60;1.65;;;;;;;30.30;48.54;100262.97;5051963;28;65633;-39
2022/05/28 07:54:41;;;;;;;7.40;1.55;;;;;;;30.40;49.14;100242.41;5057606;28;69119;-39
2022/05/28 07:57:12;;;;;;;2.85;1.60;;;;;;;30.57;49.79;100247.16;5068269;28;67007;-39
2022/05/28 07:59:43;;;;;;;4.63;1.98;;;;;;;30.68;50.11;100243.63;5065230;28;69367;-39
2022/05/28 08:02:14;;;;;;;3.13;1.55;;;;;;;30.84;50.82;100247.53;5065386;28;65709;-39
2022/05/28 08:04:45;;;;;;;3.10;2.03;;;;;;;30.93;54.93;100251.56;5075392;28;69742;-39
2022/05/28 08:07:16;;;;;;;3.60;1.85;;;;;;;31.08;57.37;100256.50;5050991;28;65414;-39
2022/05/28 08:09:47;;;;;;;2.28;1.88;;;;;;;31.16;59.27;100242.59;5061376;28;69081;-39
2022/05/28 08:12:17;;;;;;;2.65;2.35;;;;;;;31.25;59.79;100243.06;5074367;28;66548;-39
2022/05/28 08:14:48;;;;;;;6.45;2.72;;;;;;;31.35;60.41;100244.09;5066501;28;71467;-38
2022/05/28 08:17:19;;;;;;;4.07;2.28;;;;;;;31.43;60.53;100256.50;5073773;28;66623;-38
2022/05/28 08:19:51;;;;;;;5.47;2.25;;;;;;;31.25;61.66;100216.78;5051877;28;69530;-38
2022/05/28 08:25:11;;;;;;;4.97;2.70;;;;;;;31.60;62.52;100295.34;5060257;28;69818;-39
2022/05/28 08:27:41;;;;;;;5.13;2.60;;;;;;;31.65;62.43;100286.50;5070825;28;66965;-38
2022/05/28 08:30:13;;;;;;;8.88;2.20;;;;;;;31.69;62.79;100292.25;5070919;27;69332;-38
2022/05/28 08:32:43;;;;;;;3.20;2.03;;;;;;;31.71;63.23;100311.81;5069776;28;65535;-39
2022/05/28 08:35:16;;;;;;;8.80;3.20;;;;;;;31.77;62.95;100313.56;5064761;28;69265;-39
2022/05/28 08:37:47;;;;;;;3.97;2.22;;;;;;;31.79;63.33;100335.88;5068389;28;66088;-41
2022/05/28 08:40:18;;;;;;;3.15;2.25;;;;;;;31.41;63.88;100274.06;5065957;28;69007;-39
2022/05/28 08:42:49;;;;;;;5.63;3.20;;;;;;;31.77;64.06;100337.97;5066690;28;66646;-39
2022/05/28 08:45:19;;;;;;;4.57;3.90;;;;;;;31.78;65.08;100339.63;5068488;28;70613;-38
2022/05/28 08:47:55;;;;;;;8.07;7.30;;;;;;;31.51;65.10;100302.19;5074134;28;66385;-38
2022/05/28 08:50:26;;;;;;;14.80;13.25;;;;;;;31.82;65.17;100346.22;5071292;28;68810;-38
2022/05/28 08:53:13;;;;;;;30.35;24.33;;;;;;;31.71;66.05;100328.09;5059655;28;64370;-39
2022/05/28 08:55:48;;;;;;;61.38;51.88;;;;;;;31.91;66.31;100350.22;5070229;28;69776;-39
2022/05/28 08:58:24;;;;;;;96.45;85.93;;;;;;;31.93;66.59;100329.13;5071846;28;65628;-39
2022/05/28 09:01:07;;;;;;;117.13;104.32;;;;;;;31.89;67.53;100333.34;5055616;28;69298;-39
2022/05/28 09:03:48;;;;;;;116.10;96.40;;;;;;;31.88;67.93;100329.00;5060228;28;66743;-39
2022/05/28 09:06:32;;;;;;;99.05;87.15;;;;;;;31.51;67.44;100269.69;5042660;28;69214;-39
2022/05/28 09:09:04;;;;;;;84.10;72.82;;;;;;;31.93;68.07;100333.72;5061144;28;66249;-39
2022/05/28 09:11:46;;;;;;;69.07;58.53;;;;;;;31.49;67.89;100270.97;5073932;28;69170;-41
2022/05/28 09:14:39;;;;;;;56.20;46.08;;;;;;;31.73;66.83;100282.56;5070125;28;65597;-38
2022/05/28 09:17:35;;;;;;;44.70;37.33;;;;;;;32.21;65.73;100332.94;5076179;28;70366;-37
2022/05/28 09:20:17;;;;;;;35.25;31.38;;;;;;;32.34;64.27;100321.75;5053047;28;65025;-39
2022/05/28 09:22:49;;;;;;;29.75;26.83;;;;;;;32.37;64.17;100313.13;5080116;28;69552;-38
2022/05/28 09:25:23;;;;;;;34.40;22.48;;;;;;;31.99;66.74;100282.03;5073815;28;66496;-40
2022/05/28 09:28:10;;;;;;;26.10;17.52;;;;;;;32.21;67.44;100339.16;5076469;28;69905;-37
2022/05/28 09:30:49;;;;;;;12.63;11.68;;;;;;;32.07;67.71;100342.38;5056004;28;66545;-38
2022/05/28 09:33:32;;;;;;;10.68;9.35;;;;;;;31.98;68.17;100334.66;5066329;28;69334;-38
2022/05/28 09:36:02;;;;;;;;;;;;;;;31.55;69.77;100341.31;5070330;28;65425;-38
2022/05/28 09:38:58;;;;;;;11.82;8.18;;;;;;;31.74;69.00;100327.63;5072115;28;70299;-37
2022/05/28 09:41:38;;;;;;;10.85;6.90;;;;;;;31.82;69.41;100338.09;5070564;27;66317;-38
2022/05/28 09:44:29;;;;;;;7.90;6.68;;;;;;;31.78;69.28;100348.56;5075234;28;70166;-38
2022/05/28 09:47:11;;;;;;;10.45;7.13;;;;;;;31.69;69.71;100354.63;5060721;28;66579;-38
2022/05/28 09:49:49;;;;;;;;;;;;;;;31.35;71.39;100365.22;5080212;28;69119;-37
2022/05/28 09:52:22;;;;;;;16.45;9.93;;;;;;;31.64;70.26;100368.06;5056487;28;66169;-38
2022/05/28 09:55:10;;;;;;;20.55;11.30;;;;;;;31.62;70.42;100371.00;5067917;28;69782;-37
2022/05/28 09:57:52;;;;;;;18.75;10.85;;;;;;;31.28;70.83;100323.88;5071319;28;65520;-38
2022/05/28 10:00:24;;;;;;;15.13;9.82;;;;;;;31.61;70.02;100381.03;5055515;28;70526;-37
2022/05/28 10:05:58;;;;;;;14.00;9.75;;;;;;;31.52;70.35;100385.16;5068572;27;70856;-37
2022/05/28 10:08:33;;;;;;;19.05;10.85;;;;;;;31.68;69.95;100393.63;5041369;28;65738;-38
2022/05/28 10:11:06;;;;;;;15.93;11.93;;;;;;;31.66;70.04;100404.72;5067807;28;69906;-37
2022/05/28 10:13:48;;;;;;;18.05;11.77;;;;;;;31.15;70.19;100331.19;5066967;28;66451;-37
2022/05/28 10:16:26;;;;;;;22.05;12.75;;;;;;;31.41;70.48;100386.00;5072847;28;69869;-38
2022/05/28 10:19:20;;;;;;;14.15;12.43;;;;;;;31.55;70.93;100422.66;5049963;28;66315;-37
2022/05/28 10:21:54;;;;;;;17.40;11.88;;;;;;;31.58;71.66;100422.16;5083300;28;69832;-40
2022/05/28 10:24:28;;;;;;;14.55;10.70;;;;;;;31.56;71.79;100424.28;5061381;28;66390;-39
2022/05/28 10:27:01;;;;;;;11.43;9.77;;;;;;;31.78;69.44;100426.41;5057447;28;70773;-38
2022/05/28 10:29:32;;;;;;;12.70;10.20;;;;;;;31.88;68.66;100415.78;5073682;28;65774;-38
2022/05/28 10:32:04;;;;;;;13.15;9.88;;;;;;;31.96;68.60;100414.63;5041683;28;70841;-38
2022/05/28 10:34:35;;;;;;;;;;;;;;;31.72;70.81;100411.09;5077180;28;65044;-38
2022/05/28 10:37:19;;;;;;;16.42;10.13;;;;;;;32.03;69.12;100418.84;5067829;28;69462;-40
2022/05/28 10:40:00;;;;;;;17.27;10.52;;;;;;;32.13;68.18;100422.84;5059894;28;66371;-39
2022/05/28 10:42:32;;;;;;;12.88;10.63;;;;;;;32.20;68.72;100428.94;5027682;28;69281;-39
2022/05/28 10:45:04;;;;;;;17.23;10.52;;;;;;;32.24;68.62;100433.66;5054342;28;67594;-40
2022/05/28 10:48:19;;;;;;;14.52;9.85;;;;;;;32.12;69.65;100429.31;5073189;28;69394;-38
2022/05/28 10:51:25;;;;;;;10.93;9.77;;;;;;;32.22;69.68;100433.06;5059747;28;66575;-38
2022/05/28 10:54:19;;;;;;;15.43;11.40;;;;;;;31.64;72.52;100395.19;5076305;28;71099;-39
2022/05/28 10:57:01;;;;;;;11.88;10.52;;;;;;;31.84;72.96;100436.28;5077439;28;66334;-39
2022/05/28 10:59:40;;;;;;;16.85;11.57;;;;;;;31.70;73.63;100445.75;5075112;28;70020;-39
2022/05/28 11:02:29;;;;;;;15.55;10.55;;;;;;;31.65;74.21;100445.63;5068603;28;66189;-38
2022/05/28 11:05:10;;;;;;;12.27;10.90;;;;;;;31.57;74.66;100450.34;5070159;28;70156;-40
2022/05/28 11:07:57;;;;;;;11.98;10.13;;;;;;;31.52;74.66;100461.06;5065453;28;66539;-39
2022/05/28 11:10:46;;;;;;;11.52;10.50;;;;;;;31.48;74.69;100454.47;5071306;28;70375;-39
2022/05/28 11:13:25;;;;;;;12.00;10.35;;;;;;;31.50;75.06;100457.75;5066414;28;66458;-39
2022/05/28 11:16:02;;;;;;;12.50;10.48;;;;;;;31.45;75.00;100452.22;5050732;28;69287;-39
2022/05/28 11:18:54;;;;;;;12.90;10.80;;;;;;;31.39;75.42;100456.69;5067897;28;66209;-39
2022/05/28 11:21:45;;;;;;;10.57;9.55;;;;;;;31.44;75.82;100469.53;5066646;28;70555;-39
2022/05/28 11:24:29;;;;;;;11.25;10.23;;;;;;;31.41;76.28;100483.56;5054499;28;66566;-38
2022/05/28 11:27:21;;;;;;;12.30;11.10;;;;;;;31.38;76.64;100482.16;5056465;28;69677;-40
2022/05/28 11:30:17;;;;;;;21.83;12.68;;;;;;;31.36;76.33;100494.28;5060892;28;65970;-38
2022/05/28 11:33:02;;;;;;;21.55;13.98;;;;;;;31.41;76.59;100490.88;5041480;28;69318;-38
2022/05/28 11:35:40;;;;;;;30.50;17.48;;;;;;;31.38;76.84;100470.50;5044540;28;66145;-39
2022/05/28 11:38:40;;;;;;;46.17;22.60;;;;;;;31.32;76.92;100482.25;5043443;28;69892;-39
2022/05/28 11:41:34;;;;;;;55.70;25.38;;;;;;;31.33;76.87;100487.41;5014273;28;65242;-39
2022/05/28 11:44:28;;;;;;;53.58;24.85;;;;;;;31.29;77.07;100512.50;5056212;28;69240;-38
2022/05/28 11:47:27;;;;;;;43.75;24.00;;;;;;;31.36;77.66;100530.34;5037842;28;66016;-39
2022/05/28 11:53:09;;;;;;;37.38;20.73;;;;;;;31.40;78.05;100525.28;5068257;28;65666;-38
2022/05/28 11:55:44;;;;;;;45.92;21.92;;;;;;;31.41;77.88;100518.81;5058865;28;69929;-38
2022/05/28 11:58:33;;;;;;;37.95;19.10;;;;;;;31.06;78.09;100468.00;5035476;28;64955;-39
2022/05/28 12:01:10;;;;;;;31.67;18.77;;;;;;;31.45;78.15;100535.41;5032794;28;70143;-39
2022/05/28 12:03:45;;;;;;;33.53;19.02;;;;;;;31.46;78.34;100548.75;5041258;28;66186;-38